createdAt,value
2022-09-12T00:00:09.353Z,12.40
2022-09-12T00:02:38.234Z,12.40
2022-09-12T00:05:08.076Z,12.40
2022-09-12T00:07:36.816Z,12.40
2022-09-12T00:10:06.215Z,12.30
2022-09-12T00:12:35.041Z,12.30
2022-09-12T00:15:03.686Z,12.30
2022-09-12T00:17:35.835Z,12.20
2022-09-12T00:20:05.364Z,12.20
2022-09-12T00:22:33.885Z,12.20
2022-09-12T00:25:02.705Z,12.20
2022-09-12T00:27:31.245Z,12.20
2022-09-12T00:29:59.754Z,12.20
2022-09-12T00:32:28.615Z,12.20
2022-09-12T00:34:59.165Z,12.10
2022-09-12T00:37:27.885Z,12.00
2022-09-12T00:39:56.488Z,12.00
2022-09-12T00:42:25.075Z,11.90
2022-09-12T00:44:54.713Z,11.80
2022-09-12T00:47:27.034Z,11.80
2022-09-12T00:50:04.507Z,11.80
2022-09-12T00:52:37.355Z,11.70
2022-09-12T00:55:10.945Z,11.80
2022-09-12T00:57:44.246Z,11.80
2022-09-12T01:00:17.394Z,11.70
2022-09-12T01:02:50.225Z,11.60
2022-09-12T01:05:21.055Z,11.60
2022-09-12T01:07:50.294Z,11.60
2022-09-12T01:10:19.937Z,11.60
2022-09-12T01:12:50.029Z,11.60
2022-09-12T01:15:18.915Z,11.70
2022-09-12T01:18:00.515Z,11.70
2022-09-12T01:20:56.083Z,11.70
2022-09-12T01:23:58.557Z,11.70
2022-09-12T01:26:58.894Z,11.70
2022-09-12T01:29:57.985Z,11.70
2022-09-12T01:32:37.889Z,11.60
2022-09-12T01:35:17.007Z,11.50
2022-09-12T01:37:54.362Z,11.50
2022-09-12T01:40:31.623Z,11.60
2022-09-12T01:43:10.302Z,11.60
2022-09-12T01:45:45.282Z,11.50
2022-09-12T01:48:20.947Z,11.50
2022-09-12T01:50:54.045Z,11.50
2022-09-12T01:53:27.425Z,11.60
2022-09-12T01:56:01.643Z,11.60
2022-09-12T01:58:38.168Z,11.60
2022-09-12T02:01:11.242Z,11.60
2022-09-12T02:03:45.215Z,11.70
2022-09-12T02:06:20.218Z,11.90
2022-09-12T02:08:52.613Z,12.10
2022-09-12T02:11:22.656Z,12.30
2022-09-12T02:13:56.404Z,12.40
2022-09-12T02:16:31.789Z,12.50
2022-09-12T02:19:07.451Z,12.50
2022-09-12T02:21:40.325Z,12.40
2022-09-12T02:24:11.815Z,12.20
2022-09-12T02:26:49.466Z,12.00
2022-09-12T02:29:18.075Z,12.00
2022-09-12T02:31:48.445Z,11.90
2022-09-12T02:34:33.415Z,11.90
2022-09-12T02:37:10.445Z,11.90
2022-09-12T02:39:43.233Z,11.80
2022-09-12T02:42:14.115Z,11.70
2022-09-12T02:44:43.569Z,11.60
2022-09-12T02:47:17.436Z,11.50
2022-09-12T02:49:47.954Z,11.40
2022-09-12T02:52:17.055Z,11.30
2022-09-12T02:54:46.385Z,11.20
2022-09-12T02:57:22.562Z,11.20
2022-09-12T02:59:58.529Z,11.20
2022-09-12T03:02:33.954Z,11.10
2022-09-12T03:05:18.077Z,11.10
2022-09-12T03:08:04.671Z,11.00
2022-09-12T03:10:41.316Z,11.00
2022-09-12T03:13:21.345Z,11.00
2022-09-12T03:16:00.877Z,11.00
2022-09-12T03:18:39.007Z,11.00
2022-09-12T03:21:14.295Z,11.00
2022-09-12T03:23:53.378Z,11.00
2022-09-12T03:26:28.676Z,11.10
2022-09-12T03:28:59.428Z,11.20
2022-09-12T03:31:28.206Z,11.20
2022-09-12T03:33:56.706Z,11.20
2022-09-12T03:36:28.666Z,11.20
2022-09-12T03:38:57.806Z,11.20
2022-09-12T03:41:26.464Z,11.20
2022-09-12T03:43:57.120Z,11.20
2022-09-12T03:46:25.779Z,11.10
2022-09-12T03:48:54.367Z,11.20
2022-09-12T03:51:22.967Z,11.20
2022-09-12T03:53:52.934Z,11.10
2022-09-12T03:56:21.556Z,11.10
2022-09-12T03:58:50.020Z,11.10
2022-09-12T04:01:20.210Z,11.00
2022-09-12T04:03:50.638Z,11.00
2022-09-12T04:06:20.588Z,11.10
2022-09-12T04:08:51.685Z,11.10
2022-09-12T04:11:23.269Z,11.20
2022-09-12T04:13:52.355Z,11.30
2022-09-12T04:16:21.159Z,11.30
2022-09-12T04:18:49.737Z,11.30
2022-09-12T04:21:19.847Z,11.30
2022-09-12T04:23:48.380Z,11.40
2022-09-12T04:26:18.017Z,11.40
2022-09-12T04:28:53.802Z,11.40
2022-09-12T04:31:23.679Z,11.30
2022-09-12T04:33:55.566Z,11.20
2022-09-12T04:36:24.536Z,11.10
2022-09-12T04:38:53.768Z,11.00
2022-09-12T04:41:24.006Z,10.80
2022-09-12T04:43:58.398Z,10.80
2022-09-12T04:46:28.166Z,10.70
2022-09-12T04:48:57.292Z,10.70
2022-09-12T04:51:28.615Z,10.60
2022-09-12T04:53:58.394Z,10.50
2022-09-12T04:56:28.226Z,10.50
2022-09-12T04:58:58.967Z,10.40
2022-09-12T05:01:28.569Z,10.40
2022-09-12T05:03:57.879Z,10.30
2022-09-12T05:06:28.346Z,10.20
2022-09-12T05:08:58.663Z,10.20
2022-09-12T05:11:46.750Z,10.10
2022-09-12T05:14:18.994Z,10.00
2022-09-12T05:16:49.608Z,10.10
2022-09-12T05:19:18.566Z,10.10
2022-09-12T05:21:47.178Z,10.10
2022-09-12T05:24:15.726Z,10.10
2022-09-12T05:26:44.367Z,10.20
2022-09-12T05:29:13.362Z,10.20
2022-09-12T05:31:43.507Z,10.30
2022-09-12T05:34:12.895Z,10.30
2022-09-12T05:36:41.637Z,10.40
2022-09-12T05:39:10.185Z,10.50
2022-09-12T05:41:38.845Z,10.70
2022-09-12T05:44:12.346Z,10.90
2022-09-12T05:46:43.806Z,11.10
2022-09-12T05:49:13.530Z,11.20
2022-09-12T05:51:45.143Z,11.30
2022-09-12T05:54:17.184Z,11.40
2022-09-12T05:56:46.616Z,11.50
2022-09-12T05:59:17.327Z,11.60
2022-09-12T06:01:48.651Z,11.80
2022-09-12T06:04:17.597Z,11.90
2022-09-12T06:06:49.135Z,12.10
2022-09-12T06:09:19.004Z,12.20
2022-09-12T06:11:47.874Z,12.40
2022-09-12T06:14:18.496Z,12.60
2022-09-12T06:16:48.839Z,12.70
2022-09-12T06:19:18.785Z,12.90
2022-09-12T06:21:48.496Z,13.10
2022-09-12T06:24:17.797Z,13.30
2022-09-12T06:26:47.615Z,13.50
2022-09-12T06:29:16.398Z,13.50
2022-09-12T06:31:45.897Z,13.60
2022-09-12T06:34:17.386Z,13.60
2022-09-12T06:36:47.326Z,13.70
2022-09-12T06:39:17.227Z,13.70
2022-09-12T06:41:46.205Z,13.80
2022-09-12T06:44:16.956Z,13.80
2022-09-12T06:46:45.823Z,13.90
2022-09-12T06:49:16.056Z,13.90
2022-09-12T06:51:44.627Z,14.00
2022-09-12T06:54:15.596Z,14.10
2022-09-12T06:56:44.380Z,14.20
2022-09-12T06:59:13.186Z,14.40
2022-09-12T07:01:42.099Z,14.40
2022-09-12T07:04:10.830Z,14.50
2022-09-12T07:06:43.159Z,14.60
2022-09-12T07:09:16.520Z,14.70
2022-09-12T07:11:46.833Z,14.80
2022-09-12T07:14:16.073Z,14.90
2022-09-12T07:16:44.735Z,15.10
2022-09-12T07:19:13.403Z,15.20
2022-09-12T07:21:43.354Z,15.40
2022-09-12T07:24:12.393Z,15.60
2022-09-12T07:26:42.356Z,15.70
2022-09-12T07:29:35.852Z,15.80
2022-09-12T07:32:05.814Z,16.10
2022-09-12T07:34:35.347Z,16.30
2022-09-12T07:37:06.094Z,16.50
2022-09-12T07:39:35.418Z,16.80
2022-09-12T07:42:03.995Z,17.10
2022-09-12T07:44:32.849Z,17.40
2022-09-12T07:47:01.896Z,17.60
2022-09-12T07:49:30.926Z,17.80
2022-09-12T07:51:59.507Z,18.00
2022-09-12T07:54:29.948Z,18.10
2022-09-12T07:56:58.518Z,18.20
2022-09-12T07:59:50.892Z,18.60
2022-09-12T08:02:17.666Z,19.00
2022-09-12T08:04:47.080Z,19.00
2022-09-12T08:07:15.726Z,18.90
2022-09-12T08:09:45.676Z,18.90
2022-09-12T08:12:14.778Z,19.00
2022-09-12T08:14:43.367Z,19.20
2022-09-12T08:17:12.163Z,19.20
2022-09-12T08:19:40.754Z,19.50
2022-09-12T08:22:09.939Z,19.70
2022-09-12T08:24:39.496Z,19.90
2022-09-12T08:27:09.926Z,20.20
2022-09-12T08:29:38.486Z,20.30
2022-09-12T08:32:07.157Z,20.50
2022-09-12T08:34:35.757Z,20.70
2022-09-12T08:37:04.274Z,20.80
2022-09-12T08:39:33.416Z,21.10
2022-09-12T08:42:04.354Z,21.50
2022-09-12T08:44:58.027Z,21.70
2022-09-12T08:47:33.077Z,21.90
2022-09-12T08:50:07.807Z,22.10
2022-09-12T08:52:42.207Z,22.30
2022-09-12T08:55:25.040Z,22.50
2022-09-12T08:57:54.326Z,22.60
2022-09-12T09:00:24.459Z,22.80
2022-09-12T09:03:31.367Z,23.00
2022-09-12T09:06:07.291Z,23.20
2022-09-12T09:08:48.677Z,23.30
2022-09-12T09:11:36.903Z,23.40
2022-09-12T09:14:51.348Z,23.40
2022-09-12T09:17:27.169Z,23.40
2022-09-12T09:20:04.687Z,23.20
2022-09-12T09:22:48.536Z,23.00
2022-09-12T09:25:24.645Z,22.70
2022-09-12T09:27:59.837Z,22.60
2022-09-12T09:30:29.215Z,22.50
2022-09-12T09:33:03.306Z,22.40
2022-09-12T09:35:44.735Z,22.40
2022-09-12T09:38:24.214Z,22.50
2022-09-12T09:41:06.813Z,22.70
2022-09-12T09:43:35.436Z,22.60
2022-09-12T09:46:04.047Z,22.80
2022-09-12T09:48:37.042Z,22.80
2022-09-12T09:51:07.262Z,23.00
2022-09-12T09:53:42.837Z,23.30
2022-09-12T09:56:14.799Z,23.40
2022-09-12T09:58:43.796Z,23.60
2022-09-12T10:01:18.363Z,23.90
2022-09-12T10:03:52.869Z,24.10
2022-09-12T10:06:28.576Z,24.40
2022-09-12T10:09:09.085Z,24.50
2022-09-12T10:11:43.677Z,24.60
2022-09-12T10:14:31.979Z,24.60
2022-09-12T10:17:00.763Z,24.60
2022-09-12T10:19:40.955Z,24.80
2022-09-12T10:22:18.676Z,24.60
2022-09-12T10:24:50.286Z,24.30
2022-09-12T10:27:22.397Z,23.90
2022-09-12T10:29:54.986Z,23.70
2022-09-12T10:32:31.004Z,23.50
2022-09-12T10:35:03.792Z,23.40
2022-09-12T10:37:37.496Z,23.30
2022-09-12T10:40:09.428Z,23.10
2022-09-12T10:42:50.725Z,22.90
2022-09-12T10:45:25.548Z,22.90
2022-09-12T10:47:54.981Z,22.90
2022-09-12T10:50:28.656Z,22.90
2022-09-12T10:53:13.633Z,22.80
2022-09-12T10:55:50.205Z,22.90
2022-09-12T10:58:33.399Z,22.90
2022-09-12T11:01:07.157Z,22.90
2022-09-12T11:03:51.180Z,22.90
2022-09-12T11:06:31.879Z,22.90
2022-09-12T11:09:11.446Z,22.90
2022-09-12T11:12:04.824Z,23.10
2022-09-12T11:14:42.448Z,23.50
2022-09-12T11:17:21.037Z,23.90
2022-09-12T11:20:19.248Z,24.60
2022-09-12T11:23:29.362Z,25.90
2022-09-12T11:26:04.748Z,27.80
2022-09-12T11:28:47.315Z,29.40
2022-09-12T11:31:22.945Z,29.20
2022-09-12T11:33:56.468Z,29.10
2022-09-12T11:36:34.567Z,29.10
2022-09-12T11:39:14.796Z,28.90
2022-09-12T11:41:45.604Z,28.50
2022-09-12T11:44:20.563Z,28.10
2022-09-12T11:46:51.930Z,27.80
2022-09-12T11:49:35.596Z,27.40
2022-09-12T11:52:08.520Z,27.00
2022-09-12T11:54:44.957Z,26.40
2022-09-12T11:57:19.986Z,26.30
2022-09-12T11:59:54.196Z,26.20
2022-09-12T12:02:28.419Z,26.20
2022-09-12T12:05:20.700Z,26.20
2022-09-12T12:07:54.617Z,26.40
2022-09-12T12:10:27.511Z,26.60
2022-09-12T12:12:57.654Z,26.80
2022-09-12T12:15:27.067Z,27.00
2022-09-12T12:18:03.835Z,27.10
2022-09-12T12:20:32.780Z,26.80
2022-09-12T12:23:02.418Z,26.60
2022-09-12T12:25:53.274Z,26.40
2022-09-12T12:28:59.106Z,26.30
2022-09-12T12:31:29.098Z,26.30
2022-09-12T12:34:21.933Z,26.60
2022-09-12T12:36:51.736Z,26.70
2022-09-12T12:40:01.243Z,26.70
2022-09-12T12:43:31.764Z,26.80
2022-09-12T12:46:15.079Z,26.80
2022-09-12T12:49:10.926Z,26.90
2022-09-12T12:51:59.215Z,27.10
2022-09-12T12:54:54.306Z,27.40
2022-09-12T12:57:35.515Z,27.40
2022-09-12T13:00:09.078Z,28.00
2022-09-12T13:02:42.443Z,29.30
2022-09-12T13:05:21.219Z,30.50
2022-09-12T13:07:57.976Z,30.90
2022-09-12T13:10:29.636Z,31.20
2022-09-12T13:13:01.452Z,31.50
2022-09-12T13:15:55.429Z,31.40
2022-09-12T13:18:28.385Z,31.10
2022-09-12T13:21:09.246Z,31.70
2022-09-12T13:23:37.997Z,31.00
2022-09-12T13:26:13.386Z,30.50
2022-09-12T13:28:42.100Z,31.10
2022-09-12T13:31:19.071Z,31.70
2022-09-12T13:33:50.525Z,31.20
2022-09-12T13:36:45.426Z,30.70
2022-09-12T13:39:21.043Z,30.30
2022-09-12T13:42:30.386Z,29.40
2022-09-12T13:45:03.416Z,29.80
2022-09-12T13:47:37.605Z,29.70
2022-09-12T13:50:08.842Z,30.10
2022-09-12T13:52:39.455Z,30.50
2022-09-12T13:55:15.620Z,30.50
2022-09-12T13:57:44.139Z,30.30
2022-09-12T14:00:19.502Z,30.20
2022-09-12T14:02:50.127Z,29.80
2022-09-12T14:05:22.942Z,29.40
2022-09-12T14:07:56.402Z,28.70
2022-09-12T14:10:33.728Z,28.10
2022-09-12T14:13:06.671Z,27.80
2022-09-12T14:15:41.473Z,27.40
2022-09-12T14:18:26.042Z,27.20
2022-09-12T14:20:57.359Z,27.00
2022-09-12T14:23:33.264Z,26.80
2022-09-12T14:26:13.023Z,26.80
2022-09-12T14:28:45.015Z,26.80
2022-09-12T14:31:27.343Z,26.80
2022-09-12T14:34:09.068Z,26.80
2022-09-12T14:36:44.696Z,26.80
2022-09-12T14:39:29.074Z,26.80
2022-09-12T14:42:08.026Z,26.80
2022-09-12T14:44:44.089Z,26.70
2022-09-12T14:47:21.203Z,26.70
2022-09-12T14:49:53.066Z,26.80
2022-09-12T14:52:29.926Z,26.70
2022-09-12T14:55:00.807Z,26.60
2022-09-12T14:57:45.570Z,26.50
2022-09-12T15:00:24.136Z,26.30
2022-09-12T15:02:57.447Z,26.30
2022-09-12T15:05:30.664Z,26.10
2022-09-12T15:08:03.509Z,26.00
2022-09-12T15:10:35.356Z,25.90
2022-09-12T15:13:25.992Z,25.70
2022-09-12T15:15:56.457Z,25.40
2022-09-12T15:18:27.617Z,25.40
2022-09-12T15:21:03.463Z,25.50
2022-09-12T15:23:40.517Z,25.80
2022-09-12T15:26:13.334Z,25.90
2022-09-12T15:28:45.680Z,25.80
2022-09-12T15:31:25.203Z,25.70
2022-09-12T15:33:55.175Z,25.60
2022-09-12T15:36:27.591Z,25.50
2022-09-12T15:38:58.534Z,25.30
2022-09-12T15:41:35.835Z,25.00
2022-09-12T15:44:05.986Z,24.80
2022-09-12T15:46:35.887Z,24.50
2022-09-12T15:49:05.387Z,24.30
2022-09-12T15:51:41.146Z,24.20
2022-09-12T15:54:17.554Z,24.10
2022-09-12T15:56:48.454Z,23.90
2022-09-12T15:59:28.398Z,23.80
2022-09-12T16:02:04.745Z,23.70
2022-09-12T16:04:36.172Z,23.60
2022-09-12T16:07:08.827Z,23.40
2022-09-12T16:09:41.987Z,23.20
2022-09-12T16:12:16.306Z,23.10
2022-09-12T16:14:45.350Z,23.00
2022-09-12T16:17:17.235Z,22.80
2022-09-12T16:19:46.146Z,22.70
2022-09-12T16:22:17.132Z,22.60
2022-09-12T16:24:47.826Z,22.60
2022-09-12T16:27:20.504Z,22.40
2022-09-12T16:29:50.715Z,22.30
2022-09-12T16:32:20.456Z,22.20
2022-09-12T16:34:54.526Z,22.10
2022-09-12T16:37:29.482Z,22.10
2022-09-12T16:40:01.081Z,22.00
2022-09-12T16:42:31.086Z,21.90
2022-09-12T16:45:00.419Z,21.80
2022-09-12T16:47:34.579Z,21.80
2022-09-12T16:50:06.007Z,21.70
2022-09-12T16:52:37.680Z,21.50
2022-09-12T16:55:07.857Z,21.50
2022-09-12T16:57:49.599Z,21.30
2022-09-12T17:00:22.959Z,21.20
2022-09-12T17:02:54.109Z,21.10
2022-09-12T17:05:31.778Z,21.10
2022-09-12T17:08:04.785Z,21.00
2022-09-12T17:10:35.593Z,20.90
2022-09-12T17:13:05.636Z,20.90
2022-09-12T17:15:38.897Z,20.90
2022-09-12T17:18:10.515Z,20.90
2022-09-12T17:20:39.596Z,20.80
2022-09-12T17:23:10.664Z,20.80
2022-09-12T17:25:40.676Z,20.70
2022-09-12T17:28:16.257Z,20.70
2022-09-12T17:30:45.329Z,20.60
2022-09-12T17:33:15.853Z,20.60
2022-09-12T17:35:45.926Z,20.50
2022-09-12T17:38:25.124Z,20.50
2022-09-12T17:40:59.728Z,20.40
2022-09-12T17:43:35.424Z,20.30
2022-09-12T17:46:05.350Z,20.30
2022-09-12T17:48:36.577Z,20.30
2022-09-12T17:51:09.924Z,20.20
2022-09-12T17:53:42.031Z,20.10
2022-09-12T17:56:14.049Z,20.10
2022-09-12T17:58:45.037Z,20.00
2022-09-12T18:01:35.726Z,20.00
2022-09-12T18:04:08.185Z,19.90
2022-09-12T18:06:41.223Z,19.90
2022-09-12T18:09:12.899Z,19.80
2022-09-12T18:11:43.676Z,19.80
2022-09-12T18:14:15.628Z,19.70
2022-09-12T18:16:48.824Z,19.60
2022-09-12T18:19:18.730Z,19.60
2022-09-12T18:21:48.307Z,19.50
2022-09-12T18:24:21.460Z,19.40
2022-09-12T18:26:50.428Z,19.40
2022-09-12T18:29:20.705Z,19.30
2022-09-12T18:31:53.688Z,19.30
2022-09-12T18:34:23.775Z,19.10
2022-09-12T18:36:55.050Z,19.10
2022-09-12T18:39:29.807Z,19.10
2022-09-12T18:41:58.794Z,19.00
2022-09-12T18:44:28.777Z,18.90
2022-09-12T18:47:02.313Z,18.80
2022-09-12T18:49:38.274Z,18.70
2022-09-12T18:52:09.317Z,18.60
2022-09-12T18:54:39.544Z,18.50
2022-09-12T18:57:12.118Z,18.40
2022-09-12T18:59:45.572Z,18.40
2022-09-12T19:02:18.301Z,18.30
2022-09-12T19:04:47.481Z,18.20
2022-09-12T19:07:19.621Z,18.10
2022-09-12T19:09:50.721Z,18.10
2022-09-12T19:12:22.495Z,18.10
2022-09-12T19:14:52.132Z,18.00
2022-09-12T19:17:22.281Z,18.00
2022-09-12T19:19:52.214Z,17.90
2022-09-12T19:22:23.166Z,17.90
2022-09-12T19:24:56.382Z,17.80
2022-09-12T19:27:29.713Z,17.80
2022-09-12T19:30:00.728Z,17.80
2022-09-12T19:32:33.690Z,17.70
2022-09-12T19:35:03.449Z,17.70
2022-09-12T19:37:41.227Z,17.60
2022-09-12T19:40:14.694Z,17.60
2022-09-12T19:42:47.750Z,17.50
2022-09-12T19:45:17.595Z,17.50
2022-09-12T19:47:47.619Z,17.40
2022-09-12T19:50:17.550Z,17.40
2022-09-12T19:52:47.459Z,17.40
2022-09-12T19:55:18.454Z,17.40
2022-09-12T19:57:48.171Z,17.50
2022-09-12T20:00:17.630Z,17.50
2022-09-12T20:02:52.251Z,17.60
2022-09-12T20:05:25.084Z,17.50
2022-09-12T20:07:54.356Z,17.60
2022-09-12T20:10:25.188Z,17.60
2022-09-12T20:12:54.181Z,17.60
2022-09-12T20:15:24.865Z,17.60
2022-09-12T20:17:56.522Z,17.60
2022-09-12T20:20:27.209Z,17.60
2022-09-12T20:22:56.852Z,17.60
2022-09-12T20:25:30.895Z,17.60
2022-09-12T20:28:00.846Z,17.70
2022-09-12T20:30:30.116Z,17.60
2022-09-12T20:32:58.869Z,17.70
2022-09-12T20:35:28.339Z,17.60
2022-09-12T20:37:57.319Z,17.70
2022-09-12T20:40:28.237Z,17.70
2022-09-12T20:42:57.030Z,17.70
2022-09-12T20:45:26.269Z,17.70
2022-09-12T20:47:55.726Z,17.70
2022-09-12T20:50:24.645Z,17.80
2022-09-12T20:52:53.483Z,17.70
2022-09-12T20:55:22.456Z,17.80
2022-09-12T20:57:53.688Z,17.80
2022-09-12T21:00:22.962Z,17.80
2022-09-12T21:02:53.676Z,17.80
2022-09-12T21:05:23.156Z,17.80
2022-09-12T21:07:52.000Z,17.80
2022-09-12T21:10:20.928Z,17.80
2022-09-12T21:12:49.852Z,17.80
2022-09-12T21:15:20.441Z,17.80
2022-09-12T21:17:49.294Z,17.90
2022-09-12T21:20:18.624Z,17.90
2022-09-12T21:22:47.337Z,17.90
2022-09-12T21:25:16.398Z,17.90
2022-09-12T21:27:45.331Z,18.00
2022-09-12T21:30:15.134Z,18.00
2022-09-12T21:32:45.928Z,18.00
2022-09-12T21:35:14.881Z,18.10
2022-09-12T21:37:43.616Z,18.10
2022-09-12T21:40:12.818Z,18.10
2022-09-12T21:42:42.483Z,18.20
2022-09-12T21:47:40.360Z,18.20
2022-09-12T21:50:11.759Z,18.20
2022-09-12T21:52:41.124Z,18.30
2022-09-12T21:55:10.947Z,18.40
2022-09-12T21:57:39.620Z,18.40
2022-09-12T22:00:11.443Z,18.40
2022-09-12T22:02:40.015Z,18.40
2022-09-12T22:05:11.980Z,18.40
2022-09-12T22:07:40.693Z,18.40
2022-09-12T22:10:10.470Z,18.30
2022-09-12T22:12:42.852Z,18.30
2022-09-12T22:15:39.580Z,18.30
2022-09-12T22:18:03.486Z,18.30
2022-09-12T22:20:33.560Z,18.20
2022-09-12T22:23:24.403Z,18.20
2022-09-12T22:25:56.217Z,18.20
2022-09-12T22:28:25.311Z,18.20
2022-09-12T22:30:55.326Z,18.30
2022-09-12T22:33:24.243Z,18.30
2022-09-12T22:35:54.162Z,18.20
2022-09-12T22:38:22.651Z,18.10
2022-09-12T22:40:51.144Z,18.00
2022-09-12T22:43:19.708Z,18.00
2022-09-12T22:45:48.202Z,17.90
2022-09-12T22:48:17.334Z,17.80
2022-09-12T22:50:46.191Z,17.80
2022-09-12T22:53:16.134Z,17.80
2022-09-12T22:55:45.152Z,17.70
2022-09-12T22:58:13.790Z,17.70
2022-09-12T23:00:49.629Z,17.70
2022-09-12T23:03:18.254Z,17.60
2022-09-12T23:05:47.675Z,17.60
2022-09-12T23:08:18.254Z,17.50
2022-09-12T23:10:47.223Z,17.50
2022-09-12T23:13:15.852Z,17.50
2022-09-12T23:15:44.334Z,17.50
2022-09-12T23:18:12.844Z,17.50
2022-09-12T23:20:41.262Z,17.50
2022-09-12T23:23:09.922Z,17.50
2022-09-12T23:25:39.953Z,17.50
2022-09-12T23:28:08.472Z,17.50
2022-09-12T23:30:38.148Z,17.70
2022-09-12T23:33:06.674Z,17.70
2022-09-12T23:35:38.210Z,17.70
2022-09-12T23:38:08.081Z,17.70
2022-09-12T23:40:40.532Z,17.70
2022-09-12T23:43:08.990Z,17.50
2022-09-12T23:45:37.511Z,17.50
2022-09-12T23:48:06.282Z,17.40
2022-09-12T23:50:34.751Z,17.40
2022-09-12T23:53:03.553Z,17.30
2022-09-12T23:55:32.191Z,17.30
2022-09-12T23:58:02.112Z,17.30
